Terminal Aerodrome Forecast
Issued by NWS

Current Version | Previous Version | Graphics & Text | Print | Product List | Glossary On
Versions: 1 2 3 4 5 6 7 8 9 10 11 12 13 14 15 16 17 18 19 20 21 22 23
385
FTUS41 KRLX 241120
TAFCKB
TAF
KCKB 241120Z 2412/2512 16002KT 5SM BR FEW001 SCT060
     FM241230 17004KT P6SM FEW070 SCT120
     FM242000 20006KT P6SM BKN070
     FM250200 15004KT P6SM BKN100
     FM250300 00000KT P6SM SCT110
     FM250700 00000KT 5SM BR BKN080=

USA.gov is the U.S. government's official web portal to all federal, state and local government web resources and services.